메인 페이지
METAR-TAF:

METAR-TAF

공항 :

New Richmond Regional Airport

New Richmond, 위스콘신, 미국

위도: 45-08-54N, 경도: 092-32-17W, 고도: 304m

현재 날씨관측

예보는 29분 전, 17:15시(UTC)에 발표되었습니다.
남남동6kt
온도 8°C
습도 42%
기압 1021 hPa
시정: 16.1km
맑음

METAR: KRNH 051715Z AUTO 16006KT 10SM CLR 08/M04 A3015 RMK AO2 T00811042

시각: 12:44 (17:44 UTC)

예보

예보는 21분 전, 17:23시(UTC)에 발표되었습니다.
예보 대상 시간: 05일 18시부터 06일 18시까지 (UTC)
남남동6kt
시정: 10km
맑음
06일 0100시부터 (UTC)
남남동5kt
시정: 10km
고도 20000ft 상공 구름 보통
06일 1200시부터 (UTC)
남남동5kt
시정: 10km
고도 10000ft 상공 흐림
06일 1500시부터 (UTC)
남남동6kt
시정: 10km
고도 3000ft 상공 흐림

TAF: KRNH 051723Z 0518/0618 16006KT P6SM SKC FM060100 15005KT P6SM SCT200 FM061200 15005KT P6SM OVC100 FM061500 16006KT P6SM OVC030

4,000개 이상의 공항 관측 자료 및 예보 (METAR 및 TAF 보고).

지도상에서 검색 가능한 기상관측소가 노란 점과 빨간 점으로 표시되어 있습니다.

기상관측소 명을 보려면 표시 위로 마우스를 이동하세요.

날씨 관측과 예보를 보려면 클릭하세요.

지도 변경 : 확대하려면 엑스 표시가 있는 녹색 버튼, 축소하려면 빼기 표시가 있는 녹색 버튼, 다음 페이지의 지도를 보려면 녹색 화살표를 클릭하세요.


METAR-TAF: